sensor_id;sensor_type;location;lat;lon;timestamp;pressure;altitude;pressure_sealevel;temperature;humidity
71764;BME280;59602;52.142;5.408;2023-03-14T00:00:16;98973.81;;;9.85;92.31
71764;BME280;59602;52.142;5.408;2023-03-14T00:02:45;98980.88;;;9.83;92.84
71764;BME280;59602;52.142;5.408;2023-03-14T00:05:13;98977.31;;;9.86;93.03
71764;BME280;59602;52.142;5.408;2023-03-14T00:07:39;98977.66;;;9.88;92.76
71764;BME280;59602;52.142;5.408;2023-03-14T00:10:11;98981.97;;;9.85;92.83
71764;BME280;59602;52.142;5.408;2023-03-14T00:12:42;98979.75;;;9.80;92.90
71764;BME280;59602;52.142;5.408;2023-03-14T00:15:11;98977.47;;;9.79;93.12
71764;BME280;59602;52.142;5.408;2023-03-14T00:17:43;98978.91;;;9.83;93.20
71764;BME280;59602;52.142;5.408;2023-03-14T00:20:10;98973.41;;;9.87;93.55
71764;BME280;59602;52.142;5.408;2023-03-14T00:22:39;98973.81;;;9.85;93.34
71764;BME280;59602;52.142;5.408;2023-03-14T00:25:07;98975.78;;;9.85;93.35
71764;BME280;59602;52.142;5.408;2023-03-14T00:27:35;98973.06;;;9.85;93.36
71764;BME280;59602;52.142;5.408;2023-03-14T00:30:03;98971.13;;;9.85;93.66
71764;BME280;59602;52.142;5.408;2023-03-14T00:32:30;98965.75;;;9.82;93.50
71764;BME280;59602;52.142;5.408;2023-03-14T00:34:58;98969.22;;;9.82;93.52
71764;BME280;59602;52.142;5.408;2023-03-14T00:37:25;98969.56;;;9.84;92.85
71764;BME280;59602;52.142;5.408;2023-03-14T00:39:54;98978.50;;;9.85;92.54
71764;BME280;59602;52.142;5.408;2023-03-14T00:42:22;98981.47;;;9.90;90.91
71764;BME280;59602;52.142;5.408;2023-03-14T00:44:48;98980.28;;;9.91;90.74
71764;BME280;59602;52.142;5.408;2023-03-14T00:47:17;98975.97;;;9.94;89.74
71764;BME280;59602;52.142;5.408;2023-03-14T00:49:44;98971.31;;;9.94;89.67
71764;BME280;59602;52.142;5.408;2023-03-14T00:52:11;98974.78;;;9.95;89.19
71764;BME280;59602;52.142;5.408;2023-03-14T00:54:38;98979.78;;;9.96;88.88
71764;BME280;59602;52.142;5.408;2023-03-14T00:57:05;98977.50;;;9.95;89.33
71764;BME280;59602;52.142;5.408;2023-03-14T00:59:36;98985.28;;;9.93;89.33
71764;BME280;59602;52.142;5.408;2023-03-14T01:02:04;98990.31;;;9.94;89.57
71764;BME280;59602;52.142;5.408;2023-03-14T01:04:32;98995.03;;;9.90;89.38
71764;BME280;59602;52.142;5.408;2023-03-14T01:06:59;98997.75;;;9.90;89.39
71764;BME280;59602;52.142;5.408;2023-03-14T01:09:26;98990.03;;;9.89;89.53
71764;BME280;59602;52.142;5.408;2023-03-14T01:11:53;98991.63;;;9.86;89.35
71764;BME280;59602;52.142;5.408;2023-03-14T01:14:19;98992.41;;;9.87;89.24
71764;BME280;59602;52.142;5.408;2023-03-14T01:16:46;98998.25;;;9.85;89.11
71764;BME280;59602;52.142;5.408;2023-03-14T01:19:15;99006.06;;;9.83;89.52
71764;BME280;59602;52.142;5.408;2023-03-14T01:21:41;99004.19;;;9.80;90.04
71764;BME280;59602;52.142;5.408;2023-03-14T01:24:11;99005.34;;;9.79;90.17
71764;BME280;59602;52.142;5.408;2023-03-14T01:26:38;99016.28;;;9.75;90.71
71764;BME280;59602;52.142;5.408;2023-03-14T01:29:09;99013.66;;;9.72;91.20
71764;BME280;59602;52.142;5.408;2023-03-14T01:31:36;99012.09;;;9.71;91.40
71764;BME280;59602;52.142;5.408;2023-03-14T01:34:05;99006.31;;;9.69;91.63
71764;BME280;59602;52.142;5.408;2023-03-14T01:36:33;99000.91;;;9.69;91.90
71764;BME280;59602;52.142;5.408;2023-03-14T01:39:00;99000.13;;;9.68;92.22
71764;BME280;59602;52.142;5.408;2023-03-14T01:41:27;98998.63;;;9.67;92.70
71764;BME280;59602;52.142;5.408;2023-03-14T01:43:54;98999.78;;;9.66;92.74
71764;BME280;59602;52.142;5.408;2023-03-14T01:49:01;98992.84;;;9.65;92.90
71764;BME280;59602;52.142;5.408;2023-03-14T01:54:12;98979.00;;;9.60;93.17
71764;BME280;59602;52.142;5.408;2023-03-14T01:56:43;98977.06;;;9.60;93.29
71764;BME280;59602;52.142;5.408;2023-03-14T01:59:13;98963.16;;;9.58;92.94
71764;BME280;59602;52.142;5.408;2023-03-14T02:01:44;98963.97;;;9.55;93.42
71764;BME280;59602;52.142;5.408;2023-03-14T02:04:16;98975.25;;;9.53;93.42
71764;BME280;59602;52.142;5.408;2023-03-14T02:06:53;98965.50;;;9.56;93.61
71764;BME280;59602;52.142;5.408;2023-03-14T02:09:22;98968.97;;;9.56;93.38
71764;BME280;59602;52.142;5.408;2023-03-14T02:11:49;98965.88;;;9.58;93.39
71764;BME280;59602;52.142;5.408;2023-03-14T02:14:30;98969.69;;;9.61;93.19
71764;BME280;59602;52.142;5.408;2023-03-14T02:17:00;98964.25;;;9.61;92.83
71764;BME280;59602;52.142;5.408;2023-03-14T02:19:40;98958.06;;;9.60;92.77
71764;BME280;59602;52.142;5.408;2023-03-14T02:22:13;98959.25;;;9.59;92.58
71764;BME280;59602;52.142;5.408;2023-03-14T02:24:53;98956.53;;;9.59;92.55
71764;BME280;59602;52.142;5.408;2023-03-14T02:27:27;98953.81;;;9.59;92.54
71764;BME280;59602;52.142;5.408;2023-03-14T02:30:01;98952.66;;;9.60;92.08
71764;BME280;59602;52.142;5.408;2023-03-14T02:32:31;98951.44;;;9.61;92.00
71764;BME280;59602;52.142;5.408;2023-03-14T02:35:03;98946.44;;;9.60;91.63
71764;BME280;59602;52.142;5.408;2023-03-14T02:37:54;98952.66;;;9.60;91.83
71764;BME280;59602;52.142;5.408;2023-03-14T02:40:25;98954.16;;;9.61;91.84
71764;BME280;59602;52.142;5.408;2023-03-14T02:42:53;98952.97;;;9.62;91.80
71764;BME280;59602;52.142;5.408;2023-03-14T02:47:57;98945.97;;;9.65;91.39
71764;BME280;59602;52.142;5.408;2023-03-14T02:50:29;98940.19;;;9.63;91.75
71764;BME280;59602;52.142;5.408;2023-03-14T02:53:00;98946.09;;;9.57;92.01
71764;BME280;59602;52.142;5.408;2023-03-14T02:55:29;98933.31;;;9.58;91.71
71764;BME280;59602;52.142;5.408;2023-03-14T02:58:12;98933.66;;;9.60;91.81
71764;BME280;59602;52.142;5.408;2023-03-14T03:00:41;98927.44;;;9.60;91.89
71764;BME280;59602;52.142;5.408;2023-03-14T03:03:21;98925.50;;;9.60;91.79
71764;BME280;59602;52.142;5.408;2023-03-14T03:05:51;98929.34;;;9.63;91.75
71764;BME280;59602;52.142;5.408;2023-03-14T03:08:20;98928.22;;;9.60;91.70
71764;BME280;59602;52.142;5.408;2023-03-14T03:10:50;98926.69;;;9.59;91.80
71764;BME280;59602;52.142;5.408;2023-03-14T03:13:19;98922.00;;;9.60;91.94
71764;BME280;59602;52.142;5.408;2023-03-14T03:15:47;98924.72;;;9.60;92.01
71764;BME280;59602;52.142;5.408;2023-03-14T03:18:24;98930.16;;;9.60;91.62
71764;BME280;59602;52.142;5.408;2023-03-14T03:21:06;98923.97;;;9.59;91.45
71764;BME280;59602;52.142;5.408;2023-03-14T03:23:35;98920.09;;;9.60;91.77
71764;BME280;59602;52.142;5.408;2023-03-14T03:26:02;98913.13;;;9.59;91.92
71764;BME280;59602;52.142;5.408;2023-03-14T03:28:38;98913.53;;;9.57;91.91
71764;BME280;59602;52.142;5.408;2023-03-14T03:31:09;98911.25;;;9.56;92.19
71764;BME280;59602;52.142;5.408;2023-03-14T03:33:37;98912.75;;;9.57;91.98
71764;BME280;59602;52.142;5.408;2023-03-14T03:36:05;98913.13;;;9.59;92.08
71764;BME280;59602;52.142;5.408;2023-03-14T03:38:44;98917.03;;;9.58;91.70
71764;BME280;59602;52.142;5.408;2023-03-14T03:41:11;98909.66;;;9.59;91.93
71764;BME280;59602;52.142;5.408;2023-03-14T03:43:43;98898.44;;;9.56;91.86
71764;BME280;59602;52.142;5.408;2023-03-14T03:46:11;98891.41;;;9.59;91.80
71764;BME280;59602;52.142;5.408;2023-03-14T03:48:40;98890.66;;;9.59;91.63
71764;BME280;59602;52.142;5.408;2023-03-14T03:51:15;98903.88;;;9.56;91.63
71764;BME280;59602;52.142;5.408;2023-03-14T03:53:47;98897.25;;;9.57;91.44
71764;BME280;59602;52.142;5.408;2023-03-14T03:56:29;98898.03;;;9.58;91.30
71764;BME280;59602;52.142;5.408;2023-03-14T03:58:59;98893.38;;;9.59;90.92
71764;BME280;59602;52.142;5.408;2023-03-14T04:01:29;98898.38;;;9.60;91.05
71764;BME280;59602;52.142;5.408;2023-03-14T04:04:02;98902.25;;;9.59;91.10
71764;BME280;59602;52.142;5.408;2023-03-14T04:06:45;98896.78;;;9.63;90.67
71764;BME280;59602;52.142;5.408;2023-03-14T04:09:23;98900.59;;;9.65;90.36
71764;BME280;59602;52.142;5.408;2023-03-14T04:11:50;98900.59;;;9.65;90.32
71764;BME280;59602;52.142;5.408;2023-03-14T04:14:17;98902.88;;;9.67;90.37
71764;BME280;59602;52.142;5.408;2023-03-14T04:16:44;98900.59;;;9.65;90.25
71764;BME280;59602;52.142;5.408;2023-03-14T04:19:25;98905.59;;;9.67;89.84
71764;BME280;59602;52.142;5.408;2023-03-14T04:21:58;98909.50;;;9.66;90.20
71764;BME280;59602;52.142;5.408;2023-03-14T04:24:29;98907.13;;;9.68;90.41
71764;BME280;59602;52.142;5.408;2023-03-14T04:26:59;98904.75;;;9.70;90.24
71764;BME280;59602;52.142;5.408;2023-03-14T04:29:28;98914.41;;;9.71;89.92
71764;BME280;59602;52.142;5.408;2023-03-14T04:32:01;98905.91;;;9.69;89.70
71764;BME280;59602;52.142;5.408;2023-03-14T04:34:29;98915.94;;;9.72;89.84
71764;BME280;59602;52.142;5.408;2023-03-14T04:37:03;98912.03;;;9.73;89.55
71764;BME280;59602;52.142;5.408;2023-03-14T04:39:36;98893.81;;;9.73;89.34
71764;BME280;59602;52.142;5.408;2023-03-14T04:42:09;98900.44;;;9.72;89.65
71764;BME280;59602;52.142;5.408;2023-03-14T04:44:49;98898.06;;;9.74;89.28
71764;BME280;59602;52.142;5.408;2023-03-14T04:47:16;98884.50;;;9.74;88.97
71764;BME280;59602;52.142;5.408;2023-03-14T04:49:43;98885.59;;;9.77;89.20
71764;BME280;59602;52.142;5.408;2023-03-14T04:52:10;98887.97;;;9.75;89.12
71764;BME280;59602;52.142;5.408;2023-03-14T04:54:52;98883.28;;;9.75;89.44
71764;BME280;59602;52.142;5.408;2023-03-14T04:57:20;98887.53;;;9.76;89.61
71764;BME280;59602;52.142;5.408;2023-03-14T04:59:50;98884.84;;;9.76;89.22
71764;BME280;59602;52.142;5.408;2023-03-14T05:02:46;98884.84;;;9.76;89.53
71764;BME280;59602;52.142;5.408;2023-03-14T05:05:33;98871.59;;;9.79;89.28
71764;BME280;59602;52.142;5.408;2023-03-14T05:08:04;98889.06;;;9.77;89.31
71764;BME280;59602;52.142;5.408;2023-03-14T05:10:31;98890.69;;;9.75;89.57
71764;BME280;59602;52.142;5.408;2023-03-14T05:12:59;98888.72;;;9.75;89.99
71764;BME280;59602;52.142;5.408;2023-03-14T05:15:28;98874.41;;;9.75;90.50
71764;BME280;59602;52.142;5.408;2023-03-14T05:17:55;98883.38;;;9.72;91.28
71764;BME280;59602;52.142;5.408;2023-03-14T05:20:23;98870.75;;;9.65;91.78
71764;BME280;59602;52.142;5.408;2023-03-14T05:22:50;98877.69;;;9.66;92.39
71764;BME280;59602;52.142;5.408;2023-03-14T05:25:17;98866.81;;;9.66;92.34
71764;BME280;59602;52.142;5.408;2023-03-14T05:27:44;98863.78;;;9.64;92.79
71764;BME280;59602;52.142;5.408;2023-03-14T05:30:11;98861.16;;;9.61;93.23
71764;BME280;59602;52.142;5.408;2023-03-14T05:32:38;98867.00;;;9.59;93.22
71764;BME280;59602;52.142;5.408;2023-03-14T05:35:05;98865.47;;;9.58;93.51
71764;BME280;59602;52.142;5.408;2023-03-14T05:37:32;98874.78;;;9.57;93.74
71764;BME280;59602;52.142;5.408;2023-03-14T05:39:58;98871.38;;;9.53;93.82
71764;BME280;59602;52.142;5.408;2023-03-14T05:42:25;98865.19;;;9.52;94.09
71764;BME280;59602;52.142;5.408;2023-03-14T05:44:51;98864.44;;;9.52;94.31
71764;BME280;59602;52.142;5.408;2023-03-14T05:47:18;98868.66;;;9.53;94.67
71764;BME280;59602;52.142;5.408;2023-03-14T05:49:44;98869.88;;;9.52;94.76
71764;BME280;59602;52.142;5.408;2023-03-14T05:52:11;98867.22;;;9.48;94.93
71764;BME280;59602;52.142;5.408;2023-03-14T05:54:37;98864.50;;;9.48;95.06
71764;BME280;59602;52.142;5.408;2023-03-14T05:57:04;98859.88;;;9.49;95.02
71764;BME280;59602;52.142;5.408;2023-03-14T05:59:31;98860.69;;;9.46;95.03
71764;BME280;59602;52.142;5.408;2023-03-14T06:01:58;98862.28;;;9.43;95.38
71764;BME280;59602;52.142;5.408;2023-03-14T06:04:24;98858.81;;;9.43;95.25
71764;BME280;59602;52.142;5.408;2023-03-14T06:06:51;98864.59;;;9.45;95.28
71764;BME280;59602;52.142;5.408;2023-03-14T06:09:18;98850.69;;;9.43;95.44
71764;BME280;59602;52.142;5.408;2023-03-14T06:11:46;98851.44;;;9.43;95.65
71764;BME280;59602;52.142;5.408;2023-03-14T06:14:12;98856.13;;;9.43;95.74
71764;BME280;59602;52.142;5.408;2023-03-14T06:16:39;98869.69;;;9.43;95.79
71764;BME280;59602;52.142;5.408;2023-03-14T06:19:06;98867.31;;;9.45;96.03
71764;BME280;59602;52.142;5.408;2023-03-14T06:21:32;98870.03;;;9.45;95.93
71764;BME280;59602;52.142;5.408;2023-03-14T06:23:59;98873.91;;;9.44;95.96
71764;BME280;59602;52.142;5.408;2023-03-14T06:26:26;98874.66;;;9.44;96.01
71764;BME280;59602;52.142;5.408;2023-03-14T06:28:52;98889.06;;;9.41;96.36
71764;BME280;59602;52.142;5.408;2023-03-14T06:31:20;98883.31;;;9.39;96.62
71764;BME280;59602;52.142;5.408;2023-03-14T06:33:46;98895.34;;;9.38;97.13
71764;BME280;59602;52.142;5.408;2023-03-14T06:36:13;98910.84;;;9.38;97.07
71764;BME280;59602;52.142;5.408;2023-03-14T06:38:40;98925.66;;;9.33;97.37
71764;BME280;59602;52.142;5.408;2023-03-14T06:41:07;98939.28;;;9.29;97.39
71764;BME280;59602;52.142;5.408;2023-03-14T06:43:34;98945.13;;;9.28;97.42
71764;BME280;59602;52.142;5.408;2023-03-14T06:46:01;98957.59;;;9.25;97.42
71764;BME280;59602;52.142;5.408;2023-03-14T06:48:27;98967.09;;;9.13;96.23
71764;BME280;59602;52.142;5.408;2023-03-14T06:50:54;98987.38;;;9.05;94.37
71764;BME280;59602;52.142;5.408;2023-03-14T06:53:21;98991.81;;;8.96;93.40
71764;BME280;59602;52.142;5.408;2023-03-14T06:55:48;98995.69;;;8.94;93.65
71764;BME280;59602;52.142;5.408;2023-03-14T06:58:14;99008.47;;;8.94;93.62
71764;BME280;59602;52.142;5.408;2023-03-14T07:00:41;99017.44;;;8.91;92.83
71764;BME280;59602;52.142;5.408;2023-03-14T07:03:10;99022.59;;;8.82;92.75
71764;BME280;59602;52.142;5.408;2023-03-14T07:05:38;99026.19;;;8.75;92.99
71764;BME280;59602;52.142;5.408;2023-03-14T07:08:10;99029.34;;;8.73;92.98
71764;BME280;59602;52.142;5.408;2023-03-14T07:10:36;99035.53;;;8.74;93.06
71764;BME280;59602;52.142;5.408;2023-03-14T07:13:07;99044.47;;;8.71;93.27
71764;BME280;59602;52.142;5.408;2023-03-14T07:16:03;99048.44;;;8.66;93.19
71764;BME280;59602;52.142;5.408;2023-03-14T07:24:31;99078.78;;;8.54;92.57
71764;BME280;59602;52.142;5.408;2023-03-14T07:27:25;99096.28;;;8.46;92.45
71764;BME280;59602;52.142;5.408;2023-03-14T07:29:56;99100.94;;;8.45;92.19
71764;BME280;59602;52.142;5.408;2023-03-14T07:32:32;99119.09;;;8.48;92.14
71764;BME280;59602;52.142;5.408;2023-03-14T07:34:59;99129.94;;;8.48;92.17
71764;BME280;59602;52.142;5.408;2023-03-14T07:37:26;99141.19;;;8.47;92.55
71764;BME280;59602;52.142;5.408;2023-03-14T07:39:53;99153.22;;;8.42;92.55
71764;BME280;59602;52.142;5.408;2023-03-14T07:42:20;99161.00;;;8.37;92.43
71764;BME280;59602;52.142;5.408;2023-03-14T07:44:50;99171.06;;;8.36;92.65
71764;BME280;59602;52.142;5.408;2023-03-14T07:47:30;99182.72;;;8.33;92.49
71764;BME280;59602;52.142;5.408;2023-03-14T07:50:02;99189.72;;;8.30;92.13
71764;BME280;59602;52.142;5.408;2023-03-14T07:52:38;99198.59;;;8.31;92.03
71764;BME280;59602;52.142;5.408;2023-03-14T07:55:14;99208.66;;;8.30;91.44
71764;BME280;59602;52.142;5.408;2023-03-14T07:57:45;99218.03;;;8.22;90.94
71764;BME280;59602;52.142;5.408;2023-03-14T08:00:19;99249.78;;;8.18;90.65
71764;BME280;59602;52.142;5.408;2023-03-14T08:02:49;99268.44;;;8.05;90.63
71764;BME280;59602;52.142;5.408;2023-03-14T08:05:21;99281.88;;;7.71;89.52
71764;BME280;59602;52.142;5.408;2023-03-14T08:08:07;99313.72;;;7.53;89.90
71764;BME280;59602;52.142;5.408;2023-03-14T08:11:14;99316.53;;;7.35;89.75
71764;BME280;59602;52.142;5.408;2023-03-14T08:14:11;99337.81;;;7.22;89.18
71764;BME280;59602;52.142;5.408;2023-03-14T08:16:52;99342.09;;;7.16;88.49
71764;BME280;59602;52.142;5.408;2023-03-14T08:19:19;99364.88;;;7.07;88.59
71764;BME280;59602;52.142;5.408;2023-03-14T08:21:46;99367.66;;;6.90;87.89
71764;BME280;59602;52.142;5.408;2023-03-14T08:24:13;99373.06;;;6.86;88.26
71764;BME280;59602;52.142;5.408;2023-03-14T08:26:40;99380.41;;;6.85;88.42
71764;BME280;59602;52.142;5.408;2023-03-14T08:29:08;99395.88;;;6.81;88.39
71764;BME280;59602;52.142;5.408;2023-03-14T08:31:40;99404.34;;;6.69;88.36
71764;BME280;59602;52.142;5.408;2023-03-14T08:34:07;99408.59;;;6.67;88.70
71764;BME280;59602;52.142;5.408;2023-03-14T08:36:34;99424.81;;;6.59;89.07
71764;BME280;59602;52.142;5.408;2023-03-14T08:39:13;99435.25;;;6.68;88.96
71764;BME280;59602;52.142;5.408;2023-03-14T08:41:41;99440.63;;;6.72;88.80
71764;BME280;59602;52.142;5.408;2023-03-14T08:44:11;99458.78;;;6.75;88.89
71764;BME280;59602;52.142;5.408;2023-03-14T08:46:39;99464.16;;;6.78;87.83
71764;BME280;59602;52.142;5.408;2023-03-14T08:49:08;99489.25;;;6.79;87.89
71764;BME280;59602;52.142;5.408;2023-03-14T08:51:36;99495.78;;;6.85;87.43
71764;BME280;59602;52.142;5.408;2023-03-14T08:54:10;99502.72;;;6.90;86.93
71764;BME280;59602;52.142;5.408;2023-03-14T08:56:40;99502.72;;;7.00;87.10
71764;BME280;59602;52.142;5.408;2023-03-14T08:59:20;99527.44;;;7.06;86.21
71764;BME280;59602;52.142;5.408;2023-03-14T09:01:52;99540.19;;;7.13;86.26
71764;BME280;59602;52.142;5.408;2023-03-14T09:04:34;99547.88;;;7.18;85.83
71764;BME280;59602;52.142;5.408;2023-03-14T09:07:07;99563.72;;;7.05;84.47
71764;BME280;59602;52.142;5.408;2023-03-14T09:10:06;99570.31;;;7.04;84.85
71764;BME280;59602;52.142;5.408;2023-03-14T09:13:05;99577.25;;;7.16;84.64
71764;BME280;59602;52.142;5.408;2023-03-14T09:15:39;99603.91;;;7.17;82.51
71764;BME280;59602;52.142;5.408;2023-03-14T09:18:31;99613.16;;;7.02;81.61
71764;BME280;59602;52.142;5.408;2023-03-14T09:21:04;99614.69;;;6.99;82.22
71764;BME280;59602;52.142;5.408;2023-03-14T09:23:44;99625.88;;;7.05;82.52
71764;BME280;59602;52.142;5.408;2023-03-14T09:48:51;99715.84;;;7.09;78.52
71764;BME280;59602;52.142;5.408;2023-03-14T09:59:22;99754.91;;;7.30;78.10
71764;BME280;59602;52.142;5.408;2023-03-14T10:02:16;99760.31;;;7.40;79.30
71764;BME280;59602;52.142;5.408;2023-03-14T10:04:53;99757.63;;;7.47;78.41
71764;BME280;59602;52.142;5.408;2023-03-14T10:07:34;99772.31;;;7.46;78.34
71764;BME280;59602;52.142;5.408;2023-03-14T10:10:07;99779.66;;;7.42;77.63
71764;BME280;59602;52.142;5.408;2023-03-14T10:12:36;99802.81;;;7.36;77.61
71764;BME280;59602;52.142;5.408;2023-03-14T10:15:07;99805.13;;;7.31;77.98
71764;BME280;59602;52.142;5.408;2023-03-14T10:17:41;99815.53;;;7.28;78.54
71764;BME280;59602;52.142;5.408;2023-03-14T10:20:42;99847.22;;;7.32;79.57
71764;BME280;59602;52.142;5.408;2023-03-14T10:25:45;99861.09;;;7.23;79.54
71764;BME280;59602;52.142;5.408;2023-03-14T10:36:03;99894.41;;;7.52;81.05
71764;BME280;59602;52.142;5.408;2023-03-14T10:38:56;99894.03;;;7.54;80.34
71764;BME280;59602;52.142;5.408;2023-03-14T10:42:11;99924.16;;;7.52;78.00
71764;BME280;59602;52.142;5.408;2023-03-14T10:44:56;99934.97;;;7.41;78.35
71764;BME280;59602;52.142;5.408;2023-03-14T10:48:29;99951.19;;;7.45;77.37
71764;BME280;59602;52.142;5.408;2023-03-14T10:51:26;99974.38;;;7.42;77.92
71764;BME280;59602;52.142;5.408;2023-03-14T10:54:14;99985.88;;;7.32;75.38
71764;BME280;59602;52.142;5.408;2023-03-14T10:57:44;100003.16;;;7.13;76.06
71764;BME280;59602;52.142;5.408;2023-03-14T11:04:21;100024.28;;;6.97;76.41
71764;BME280;59602;52.142;5.408;2023-03-14T11:10:35;100040.56;;;7.04;73.03
71764;BME280;59602;52.142;5.408;2023-03-14T11:13:39;100054.56;;;7.17;73.17
71764;BME280;59602;52.142;5.408;2023-03-14T11:32:46;100115.31;;;7.93;66.04
71764;BME280;59602;52.142;5.408;2023-03-14T11:39:22;100138.50;;;7.94;63.80
71764;BME280;59602;52.142;5.408;2023-03-14T12:02:27;100197.41;;;8.15;58.96
71764;BME280;59602;52.142;5.408;2023-03-14T12:05:35;100195.94;;;8.24;60.19
71764;BME280;59602;52.142;5.408;2023-03-14T12:12:03;100218.03;;;8.37;56.66
71764;BME280;59602;52.142;5.408;2023-03-14T12:17:40;100230.38;;;8.27;57.05
71764;BME280;59602;52.142;5.408;2023-03-14T13:32:12;100394.78;;;8.71;51.70
71764;BME280;59602;52.142;5.408;2023-03-14T13:35:01;100401.34;;;8.67;50.35
71764;BME280;59602;52.142;5.408;2023-03-14T13:37:58;100410.91;;;8.57;49.48
71764;BME280;59602;52.142;5.408;2023-03-14T13:40:45;100411.47;;;8.32;48.92
71764;BME280;59602;52.142;5.408;2023-03-14T13:43:43;100436.31;;;8.38;49.07
71764;BME280;59602;52.142;5.408;2023-03-14T13:46:38;100424.81;;;8.48;50.18
71764;BME280;59602;52.142;5.408;2023-03-14T13:49:48;100431.88;;;8.64;49.00
71764;BME280;59602;52.142;5.408;2023-03-14T13:59:33;100451.50;;;8.50;50.53
71764;BME280;59602;52.142;5.408;2023-03-14T14:02:12;100469.94;;;8.34;51.53
71764;BME280;59602;52.142;5.408;2023-03-14T14:05:59;100475.13;;;8.12;51.91
71764;BME280;59602;52.142;5.408;2023-03-14T14:08:19;100508.78;;;8.11;53.50
71764;BME280;59602;52.142;5.408;2023-03-14T14:11:17;100502.59;;;8.10;54.00
71764;BME280;59602;52.142;5.408;2023-03-14T14:13:56;100503.13;;;8.27;54.94
71764;BME280;59602;52.142;5.408;2023-03-14T14:16:29;100515.56;;;8.31;51.57
71764;BME280;59602;52.142;5.408;2023-03-14T14:19:19;100524.69;;;8.16;50.42
71764;BME280;59602;52.142;5.408;2023-03-14T14:21:49;100532.31;;;8.07;50.93
71764;BME280;59602;52.142;5.408;2023-03-14T14:24:16;100532.28;;;8.03;50.87
71764;BME280;59602;52.142;5.408;2023-03-14T14:26:54;100543.03;;;7.96;50.83
71764;BME280;59602;52.142;5.408;2023-03-14T14:29:39;100547.63;;;7.92;50.87
71764;BME280;59602;52.142;5.408;2023-03-14T14:32:39;100561.06;;;7.85;49.52
71764;BME280;59602;52.142;5.408;2023-03-14T14:35:24;100565.22;;;7.75;49.13
71764;BME280;59602;52.142;5.408;2023-03-14T14:37:51;100565.47;;;7.66;50.02
71764;BME280;59602;52.142;5.408;2023-03-14T14:40:20;100579.72;;;7.63;48.87
71764;BME280;59602;52.142;5.408;2023-03-14T14:42:48;100587.16;;;7.70;49.96
71764;BME280;59602;52.142;5.408;2023-03-14T14:45:18;100589.16;;;7.73;50.44
71764;BME280;59602;52.142;5.408;2023-03-14T14:48:03;100599.59;;;7.75;49.79
71764;BME280;59602;52.142;5.408;2023-03-14T14:50:36;100604.97;;;7.71;49.81
71764;BME280;59602;52.142;5.408;2023-03-14T14:55:50;100606.00;;;7.63;49.14
71764;BME280;59602;52.142;5.408;2023-03-14T14:58:24;100614.88;;;7.63;48.67
71764;BME280;59602;52.142;5.408;2023-03-14T15:00:56;100615.72;;;7.67;48.28
71764;BME280;59602;52.142;5.408;2023-03-14T15:03:26;100620.47;;;7.74;49.76
71764;BME280;59602;52.142;5.408;2023-03-14T15:05:55;100625.16;;;7.77;49.61
71764;BME280;59602;52.142;5.408;2023-03-14T15:08:25;100629.78;;;7.77;50.40
71764;BME280;59602;52.142;5.408;2023-03-14T15:10:55;100642.53;;;7.76;49.60
71764;BME280;59602;52.142;5.408;2023-03-14T15:13:22;100649.81;;;7.72;49.27
71764;BME280;59602;52.142;5.408;2023-03-14T15:15:51;100650.91;;;7.67;49.36
71764;BME280;59602;52.142;5.408;2023-03-14T15:18:24;100661.03;;;7.71;50.14
71764;BME280;59602;52.142;5.408;2023-03-14T15:20:56;100669.13;;;7.71;50.05
71764;BME280;59602;52.142;5.408;2023-03-14T15:23:23;100669.44;;;7.65;49.79
71764;BME280;59602;52.142;5.408;2023-03-14T15:25:50;100672.56;;;7.67;50.11
71764;BME280;59602;52.142;5.408;2023-03-14T15:28:25;100681.50;;;7.72;50.34
71764;BME280;59602;52.142;5.408;2023-03-14T15:30:55;100686.16;;;7.71;50.47
71764;BME280;59602;52.142;5.408;2023-03-14T15:33:25;100689.63;;;7.72;49.30
71764;BME280;59602;52.142;5.408;2023-03-14T15:35:52;100687.94;;;7.63;49.39
71764;BME280;59602;52.142;5.408;2023-03-14T15:38:20;100698.72;;;7.60;49.39
71764;BME280;59602;52.142;5.408;2023-03-14T15:40:50;100703.00;;;7.61;50.75
71764;BME280;59602;52.142;5.408;2023-03-14T15:43:26;100708.78;;;7.59;50.27
71764;BME280;59602;52.142;5.408;2023-03-14T15:45:58;100709.47;;;7.56;50.15
71764;BME280;59602;52.142;5.408;2023-03-14T15:48:30;100722.25;;;7.56;49.90
71764;BME280;59602;52.142;5.408;2023-03-14T15:51:01;100723.25;;;7.47;49.15
71764;BME280;59602;52.142;5.408;2023-03-14T15:53:42;100732.56;;;7.50;50.37
71764;BME280;59602;52.142;5.408;2023-03-14T15:56:20;100738.34;;;7.48;49.42
71764;BME280;59602;52.142;5.408;2023-03-14T15:58:50;100747.47;;;7.40;49.06
71764;BME280;59602;52.142;5.408;2023-03-14T16:01:47;100746.28;;;7.38;49.40
71764;BME280;59602;52.142;5.408;2023-03-14T16:04:18;100751.34;;;7.39;49.87
71764;BME280;59602;52.142;5.408;2023-03-14T16:06:48;100750.53;;;7.39;49.85
71764;BME280;59602;52.142;5.408;2023-03-14T16:09:31;100760.22;;;7.40;50.86
71764;BME280;59602;52.142;5.408;2023-03-14T16:11:58;100766.41;;;7.40;51.18
71764;BME280;59602;52.142;5.408;2023-03-14T16:14:25;100766.41;;;7.40;50.68
71764;BME280;59602;52.142;5.408;2023-03-14T16:16:53;100766.72;;;7.35;50.92
71764;BME280;59602;52.142;5.408;2023-03-14T16:19:36;100777.09;;;7.33;51.41
71764;BME280;59602;52.142;5.408;2023-03-14T16:22:20;100782.88;;;7.32;50.69
71764;BME280;59602;52.142;5.408;2023-03-14T16:25:22;100793.56;;;7.24;50.74
71764;BME280;59602;52.142;5.408;2023-03-14T16:27:58;100797.69;;;7.18;51.24
71764;BME280;59602;52.142;5.408;2023-03-14T16:30:39;100797.69;;;7.18;51.91
71764;BME280;59602;52.142;5.408;2023-03-14T16:33:32;100800.47;;;7.22;52.71
71764;BME280;59602;52.142;5.408;2023-03-14T16:36:11;100806.94;;;7.17;52.64
71764;BME280;59602;52.142;5.408;2023-03-14T16:38:47;100801.75;;;7.09;52.95
71764;BME280;59602;52.142;5.408;2023-03-14T16:41:33;100807.50;;;7.07;53.19
71764;BME280;59602;52.142;5.408;2023-03-14T16:44:06;100813.97;;;7.02;53.01
71764;BME280;59602;52.142;5.408;2023-03-14T16:46:57;100828.13;;;6.96;52.78
71764;BME280;59602;52.142;5.408;2023-03-14T16:49:24;100835.47;;;6.95;53.07
71764;BME280;59602;52.142;5.408;2023-03-14T16:52:05;100843.56;;;6.95;53.42
71764;BME280;59602;52.142;5.408;2023-03-14T16:54:57;100838.59;;;6.97;54.28